Terminal Aerodrome Forecast
Issued by NWS Quad Cities IA IL

Home | Current Version | Previous Version | Text Only | Print | Product List | Glossary On
Versions: 1 2 3 4 5 6 7 8 9 10 11 12 13 14 15
369
FTUS43 KDVN 222353
TAFDBQ
TAF
KDBQ 222353Z 2300/2324 15012KT P6SM OVC100
     FM231500 16016G23KT P6SM OVC080
     FM232000 17015G23KT P6SM VCSH BKN035=

USA.gov is the U.S. government's official web portal to all federal, state and local government web resources and services.